createdAt,value
2019-05-22T00:00:46.173Z,56.30
2019-05-22T00:01:46.145Z,54.00
2019-05-22T00:02:46.164Z,53.20
2019-05-22T00:03:46.162Z,54.60
2019-05-22T00:04:46.099Z,55.90
2019-05-22T00:05:46.097Z,54.70
2019-05-22T00:06:46.064Z,51.30
2019-05-22T00:07:46.085Z,52.70
2019-05-22T00:08:46.050Z,56.40
2019-05-22T00:09:46.038Z,55.20
2019-05-22T00:10:46.056Z,57.10
2019-05-22T00:11:46.029Z,56.30
2019-05-22T00:12:47.062Z,54.70
2019-05-22T00:13:45.988Z,57.30
2019-05-22T00:14:45.972Z,56.30
2019-05-22T00:15:45.987Z,55.40
2019-05-22T00:16:45.952Z,53.90
2019-05-22T00:17:45.940Z,56.00
2019-05-22T00:18:45.940Z,58.70
2019-05-22T00:19:45.924Z,57.10
2019-05-22T00:20:45.926Z,57.00
2019-05-22T00:21:45.908Z,57.70
2019-05-22T00:22:45.904Z,55.20
2019-05-22T00:23:45.883Z,58.60
2019-05-22T00:24:45.873Z,52.50
2019-05-22T00:25:45.903Z,54.20
2019-05-22T00:26:45.852Z,56.30
2019-05-22T00:27:45.825Z,59.30
2019-05-22T00:28:45.821Z,53.90
2019-05-22T00:29:45.809Z,61.20
2019-05-22T00:30:45.827Z,62.30
2019-05-22T00:31:45.788Z,57.90
2019-05-22T00:32:45.781Z,60.00
2019-05-22T00:33:45.773Z,57.90
2019-05-22T00:34:45.755Z,60.10
2019-05-22T00:35:45.779Z,60.60
2019-05-22T00:36:45.732Z,60.90
2019-05-22T00:37:45.723Z,61.40
2019-05-22T00:38:45.709Z,62.80
2019-05-22T00:39:45.702Z,60.40
2019-05-22T00:40:45.699Z,62.00
2019-05-22T00:41:45.686Z,62.60
2019-05-22T00:42:45.673Z,64.50
2019-05-22T00:43:45.660Z,61.50
2019-05-22T00:44:45.651Z,61.80
2019-05-22T00:45:45.711Z,64.20
2019-05-22T00:46:45.620Z,63.10
2019-05-22T00:47:45.622Z,62.40
2019-05-22T00:48:45.599Z,64.30
2019-05-22T00:49:45.622Z,61.50
2019-05-22T00:50:45.595Z,62.50
2019-05-22T00:51:45.573Z,57.70
2019-05-22T00:52:45.554Z,53.90
2019-05-22T00:53:45.557Z,53.00
2019-05-22T00:54:45.536Z,55.30
2019-05-22T00:55:45.550Z,54.50
2019-05-22T00:56:45.514Z,52.70
2019-05-22T00:57:45.511Z,50.80
2019-05-22T00:58:45.500Z,52.00
2019-05-22T00:59:45.524Z,53.30
2019-05-22T01:00:45.477Z,51.30
2019-05-22T01:01:45.483Z,47.00
2019-05-22T01:03:54.731Z,43.10
2019-05-22T01:04:55.657Z,43.80
2019-05-22T01:05:55.653Z,45.00
2019-05-22T01:06:55.668Z,47.20
2019-05-22T01:07:55.624Z,48.60
2019-05-22T01:08:55.603Z,47.70
2019-05-22T01:09:55.593Z,46.40
2019-05-22T01:10:55.589Z,49.60
2019-05-22T01:11:55.600Z,46.90
2019-05-22T01:12:55.564Z,47.60
2019-05-22T01:13:55.551Z,50.10
2019-05-22T01:14:55.533Z,49.70
2019-05-22T01:15:55.526Z,51.20
2019-05-22T01:16:55.540Z,48.50
2019-05-22T01:17:55.506Z,48.10
2019-05-22T01:18:55.489Z,52.00
2019-05-22T01:19:56.387Z,49.20
2019-05-22T01:20:55.468Z,44.50
2019-05-22T01:21:55.483Z,46.80
2019-05-22T01:22:55.463Z,47.60
2019-05-22T01:23:55.447Z,44.10
2019-05-22T01:24:55.422Z,44.80
2019-05-22T01:25:55.420Z,44.90
2019-05-22T01:26:55.425Z,47.30
2019-05-22T01:27:55.400Z,43.50
2019-05-22T01:28:55.401Z,45.10
2019-05-22T01:29:55.385Z,44.20
2019-05-22T01:30:55.370Z,43.10
2019-05-22T01:31:55.375Z,42.30
2019-05-22T01:32:55.345Z,39.80
2019-05-22T01:33:55.339Z,44.20
2019-05-22T01:34:55.324Z,37.80
2019-05-22T01:35:55.309Z,40.70
2019-05-22T01:36:55.327Z,39.70
2019-05-22T01:37:55.293Z,38.30
2019-05-22T01:38:55.293Z,41.20
2019-05-22T01:39:55.288Z,38.10
2019-05-22T01:40:55.261Z,39.60
2019-05-22T01:41:55.291Z,36.40
2019-05-22T01:42:55.265Z,36.00
2019-05-22T01:43:55.219Z,39.10
2019-05-22T01:45:03.975Z,38.00
2019-05-22T01:45:55.219Z,39.40
2019-05-22T01:46:55.190Z,40.00
2019-05-22T01:47:55.183Z,36.60
2019-05-22T01:48:55.163Z,40.30
2019-05-22T01:49:55.152Z,36.50
2019-05-22T01:50:55.165Z,38.60
2019-05-22T01:51:55.154Z,39.10
2019-05-22T01:52:55.123Z,38.70
2019-05-22T01:53:55.116Z,45.20
2019-05-22T01:54:55.097Z,41.20
2019-05-22T01:55:55.098Z,41.50
2019-05-22T01:56:55.083Z,43.80
2019-05-22T01:57:55.072Z,43.50
2019-05-22T01:58:55.059Z,46.90
2019-05-22T01:59:55.058Z,44.10
2019-05-22T02:00:55.065Z,46.20
2019-05-22T02:01:55.040Z,44.10
2019-05-22T02:02:55.016Z,42.00
2019-05-22T02:03:54.996Z,42.90
2019-05-22T02:04:54.985Z,43.30
2019-05-22T02:05:55.017Z,42.00
2019-05-22T02:06:54.974Z,41.40
2019-05-22T02:07:54.962Z,39.70
2019-05-22T02:08:54.959Z,39.60
2019-05-22T02:09:54.924Z,40.00
2019-05-22T02:10:54.935Z,39.20
2019-05-22T02:11:54.912Z,38.10
2019-05-22T02:12:54.926Z,36.70
2019-05-22T02:13:54.903Z,34.10
2019-05-22T02:14:54.884Z,33.20
2019-05-22T02:15:54.893Z,32.60
2019-05-22T02:16:57.147Z,38.80
2019-05-22T02:17:56.571Z,34.80
2019-05-22T02:18:54.840Z,33.30
2019-05-22T02:19:54.824Z,36.50
2019-05-22T02:20:54.823Z,33.60
2019-05-22T02:21:54.796Z,29.50
2019-05-22T02:22:54.796Z,35.00
2019-05-22T02:23:54.790Z,32.00
2019-05-22T02:24:54.837Z,32.10
2019-05-22T02:25:54.775Z,31.80
2019-05-22T02:26:54.753Z,29.50
2019-05-22T02:27:54.742Z,29.60
2019-05-22T02:28:54.736Z,29.60
2019-05-22T02:29:54.711Z,28.30
2019-05-22T02:30:54.719Z,27.10
2019-05-22T02:31:55.723Z,27.40
2019-05-22T02:32:54.677Z,27.80
2019-05-22T02:33:54.676Z,30.10
2019-05-22T02:34:54.664Z,29.00
2019-05-22T02:35:54.684Z,27.10
2019-05-22T02:36:54.630Z,29.10
2019-05-22T02:37:54.631Z,31.30
2019-05-22T02:38:54.630Z,30.20
2019-05-22T02:39:54.609Z,32.40
2019-05-22T02:40:54.620Z,26.40
2019-05-22T02:41:54.599Z,28.80
2019-05-22T02:42:54.579Z,30.20
2019-05-22T02:43:54.553Z,28.40
2019-05-22T02:44:54.556Z,30.20
2019-05-22T02:45:54.547Z,29.80
2019-05-22T02:46:54.542Z,29.10
2019-05-22T02:47:54.517Z,28.40
2019-05-22T02:48:54.624Z,31.80
2019-05-22T02:49:54.520Z,31.80
2019-05-22T02:50:54.490Z,30.80
2019-05-22T02:51:54.491Z,30.70
2019-05-22T02:52:54.460Z,29.40
2019-05-22T02:53:54.450Z,29.50
2019-05-22T02:54:54.438Z,29.80
2019-05-22T02:55:54.425Z,26.60
2019-05-22T02:56:54.462Z,28.30
2019-05-22T02:57:54.403Z,27.70
2019-05-22T02:58:54.385Z,29.50
2019-05-22T02:59:54.388Z,27.50
2019-05-22T03:00:54.381Z,29.30
2019-05-22T03:01:54.370Z,27.10
2019-05-22T03:02:54.355Z,25.30
2019-05-22T03:05:03.555Z,24.40
2019-05-22T03:06:04.515Z,26.00
2019-05-22T03:07:04.601Z,28.80
2019-05-22T03:08:04.501Z,24.70
2019-05-22T03:09:04.489Z,25.20
2019-05-22T03:10:04.498Z,26.50
2019-05-22T03:11:04.461Z,24.30
2019-05-22T03:12:04.449Z,28.20
2019-05-22T03:13:04.453Z,26.70
2019-05-22T03:14:04.429Z,28.60
2019-05-22T03:15:04.437Z,27.30
2019-05-22T03:16:04.411Z,24.70
2019-05-22T03:17:04.400Z,26.10
2019-05-22T03:18:04.404Z,26.30
2019-05-22T03:19:08.841Z,27.40
2019-05-22T03:20:04.384Z,28.70
2019-05-22T03:21:04.357Z,26.70
2019-05-22T03:22:04.336Z,24.80
2019-05-22T03:23:04.338Z,26.50
2019-05-22T03:24:04.328Z,26.60
2019-05-22T03:25:04.378Z,25.70
2019-05-22T03:26:04.310Z,25.00
2019-05-22T03:27:04.300Z,27.80
2019-05-22T03:28:04.281Z,27.80
2019-05-22T03:29:04.270Z,26.60
2019-05-22T03:30:04.308Z,26.70
2019-05-22T03:31:04.270Z,26.50
2019-05-22T03:32:04.237Z,26.50
2019-05-22T03:33:04.308Z,27.30
2019-05-22T03:34:04.211Z,25.50
2019-05-22T03:35:04.192Z,28.00
2019-05-22T03:36:04.238Z,28.10
2019-05-22T03:37:04.170Z,27.20
2019-05-22T03:38:04.162Z,30.10
2019-05-22T03:39:04.169Z,26.90
2019-05-22T03:40:04.142Z,27.50
2019-05-22T03:41:04.166Z,25.50
2019-05-22T03:42:04.136Z,27.60
2019-05-22T03:43:04.125Z,27.60
2019-05-22T03:44:04.105Z,28.30
2019-05-22T03:45:04.116Z,27.20
2019-05-22T03:46:04.100Z,26.10
2019-05-22T03:47:04.075Z,26.60
2019-05-22T03:48:04.053Z,28.10
2019-05-22T03:49:04.060Z,28.30
2019-05-22T03:50:04.042Z,28.10
2019-05-22T03:51:04.053Z,27.10
2019-05-22T03:52:04.032Z,27.60
2019-05-22T03:53:04.009Z,26.20
2019-05-22T03:54:03.989Z,27.70
2019-05-22T03:55:04.023Z,25.40
2019-05-22T03:56:03.997Z,26.90
2019-05-22T03:57:03.964Z,28.10
2019-05-22T03:58:03.952Z,27.60
2019-05-22T03:59:03.939Z,27.90
2019-05-22T04:00:03.935Z,28.70
2019-05-22T04:01:03.979Z,28.70
2019-05-22T04:02:03.906Z,28.00
2019-05-22T04:03:03.892Z,29.30
2019-05-22T04:04:03.884Z,27.80
2019-05-22T04:05:03.873Z,28.50
2019-05-22T04:06:03.886Z,31.90
2019-05-22T04:07:03.850Z,27.40
2019-05-22T04:08:03.834Z,26.70
2019-05-22T04:09:03.835Z,25.40
2019-05-22T04:10:03.822Z,26.60
2019-05-22T04:11:03.824Z,28.50
2019-05-22T04:12:03.801Z,27.40
2019-05-22T04:13:03.788Z,26.30
2019-05-22T04:14:03.782Z,27.60
2019-05-22T04:15:03.758Z,26.70
2019-05-22T04:16:03.785Z,27.00
2019-05-22T04:17:03.742Z,26.60
2019-05-22T04:18:03.745Z,25.40
2019-05-22T04:19:03.727Z,28.20
2019-05-22T04:20:03.710Z,25.80
2019-05-22T04:21:03.719Z,27.50
2019-05-22T04:22:03.684Z,25.30
2019-05-22T04:23:03.671Z,24.30
2019-05-22T04:24:03.679Z,22.80
2019-05-22T04:25:03.659Z,24.10
2019-05-22T04:26:03.648Z,24.30
2019-05-22T04:27:03.619Z,23.40
2019-05-22T04:28:03.624Z,25.30
2019-05-22T04:29:03.603Z,24.40
2019-05-22T04:30:03.635Z,25.20
2019-05-22T04:31:03.605Z,23.00
2019-05-22T04:32:03.578Z,25.20
2019-05-22T04:33:03.560Z,22.40
2019-05-22T04:34:03.549Z,24.10
2019-05-22T04:35:03.541Z,22.90
2019-05-22T04:36:03.826Z,22.00
2019-05-22T04:37:03.534Z,22.80
2019-05-22T04:38:03.515Z,21.40
2019-05-22T04:39:03.490Z,22.30
2019-05-22T04:40:03.486Z,20.30
2019-05-22T04:41:03.493Z,20.90
2019-05-22T04:42:03.468Z,19.40
2019-05-22T04:43:03.458Z,18.50
2019-05-22T04:44:03.450Z,21.10
2019-05-22T04:45:03.446Z,22.30
2019-05-22T04:46:03.447Z,19.00
2019-05-22T04:47:03.408Z,18.90
2019-05-22T04:48:03.391Z,18.70
2019-05-22T04:49:03.391Z,18.20
2019-05-22T04:50:07.720Z,19.00
2019-05-22T04:51:03.388Z,18.90
2019-05-22T04:52:03.358Z,15.30
2019-05-22T04:53:03.345Z,15.30
2019-05-22T04:54:03.326Z,14.40
2019-05-22T04:55:03.325Z,15.70
2019-05-22T04:56:03.324Z,15.60
2019-05-22T04:57:03.302Z,14.80
2019-05-22T04:58:03.288Z,16.00
2019-05-22T04:59:03.272Z,14.30
2019-05-22T05:00:03.325Z,14.00
2019-05-22T05:01:03.279Z,13.40
2019-05-22T05:02:03.256Z,14.60
2019-05-22T05:03:03.226Z,12.70
2019-05-22T05:04:03.232Z,12.60
2019-05-22T05:06:13.941Z,9.70
2019-05-22T05:07:14.919Z,10.80
2019-05-22T05:08:15.636Z,8.90
2019-05-22T05:09:14.902Z,9.90
2019-05-22T05:10:14.887Z,9.10
2019-05-22T05:11:14.907Z,9.60
2019-05-22T05:12:14.877Z,9.50
2019-05-22T05:13:14.849Z,9.10
2019-05-22T05:14:14.838Z,8.60
2019-05-22T05:15:14.835Z,8.10
2019-05-22T05:16:14.812Z,8.30
2019-05-22T05:17:14.821Z,8.20
2019-05-22T05:18:14.813Z,9.00
2019-05-22T05:19:14.779Z,8.90
2019-05-22T05:20:22.355Z,9.10
2019-05-22T05:21:14.759Z,8.30
2019-05-22T05:22:14.785Z,8.60
2019-05-22T05:23:14.786Z,8.90
2019-05-22T05:24:14.730Z,8.60
2019-05-22T05:25:14.741Z,9.30
2019-05-22T05:26:14.724Z,8.50
2019-05-22T05:29:49.230Z,10.80
2019-05-22T05:30:34.871Z,8.80
2019-05-22T05:31:30.305Z,8.10
2019-05-22T05:32:32.290Z,8.60
2019-05-22T05:33:29.617Z,9.10
2019-05-22T05:39:02.502Z,7.40
2019-05-22T05:40:03.469Z,9.50
2019-05-22T05:41:03.446Z,9.40
2019-05-22T05:42:03.453Z,11.00
2019-05-22T05:43:03.441Z,10.30
2019-05-22T05:44:03.448Z,10.10
2019-05-22T05:45:03.407Z,11.30
2019-05-22T05:46:03.405Z,10.10
2019-05-22T05:47:03.950Z,10.30
2019-05-22T05:48:03.390Z,10.50
2019-05-22T05:49:03.370Z,9.30
2019-05-22T05:50:03.367Z,9.80
2019-05-22T05:51:03.534Z,11.20
2019-05-22T05:52:03.439Z,10.60
2019-05-22T05:53:03.340Z,11.40
2019-05-22T05:54:03.907Z,10.60
2019-05-22T05:55:03.337Z,11.00
2019-05-22T05:56:04.291Z,10.00
2019-05-22T05:57:03.279Z,10.50
2019-05-22T05:58:03.293Z,12.10
2019-05-22T05:59:03.251Z,11.30
2019-05-22T06:00:03.511Z,11.20
2019-05-22T06:01:03.391Z,10.80
2019-05-22T06:02:03.243Z,10.20
2019-05-22T06:03:03.279Z,11.30
2019-05-22T06:04:03.208Z,10.90
2019-05-22T06:05:03.189Z,11.70
2019-05-22T06:06:03.222Z,10.90
2019-05-22T06:07:03.187Z,10.40
2019-05-22T06:08:03.230Z,10.20
2019-05-22T06:09:03.193Z,11.40
2019-05-22T06:10:03.145Z,11.50
2019-05-22T06:11:03.133Z,11.30
2019-05-22T06:12:05.632Z,11.40
2019-05-22T06:13:03.116Z,13.30
2019-05-22T06:14:03.149Z,12.60
2019-05-22T06:15:03.105Z,12.80
2019-05-22T06:16:03.066Z,12.80
2019-05-22T06:17:03.069Z,12.80
2019-05-22T06:18:03.060Z,12.50
2019-05-22T06:19:03.094Z,12.70
2019-05-22T06:20:03.386Z,14.30
2019-05-22T06:21:04.496Z,13.50
2019-05-22T06:22:03.000Z,12.40
2019-05-22T06:23:02.996Z,12.70
2019-05-22T06:24:03.003Z,13.90
2019-05-22T06:25:03.166Z,13.30
2019-05-22T06:26:02.978Z,14.30
2019-05-22T06:27:02.961Z,13.10
2019-05-22T06:28:02.949Z,14.10
2019-05-22T06:29:02.962Z,14.00
2019-05-22T06:30:03.779Z,13.90
2019-05-22T06:31:02.908Z,15.40
2019-05-22T06:32:02.899Z,15.90
2019-05-22T06:33:02.880Z,16.30
2019-05-22T06:34:02.896Z,14.60
2019-05-22T06:35:02.861Z,15.50
2019-05-22T06:36:02.855Z,14.60
2019-05-22T06:37:02.851Z,15.30
2019-05-22T06:38:02.833Z,15.90
2019-05-22T06:39:02.835Z,15.10
2019-05-22T06:40:02.810Z,14.00
2019-05-22T06:41:02.803Z,12.90
2019-05-22T06:42:02.841Z,14.10
2019-05-22T06:43:02.794Z,13.30
2019-05-22T06:44:02.790Z,12.40
2019-05-22T06:45:04.052Z,12.70
2019-05-22T06:46:03.082Z,12.30
2019-05-22T06:47:02.744Z,13.50
2019-05-22T06:48:02.744Z,11.80
2019-05-22T06:49:02.770Z,13.00
2019-05-22T06:50:02.709Z,11.10
2019-05-22T06:51:17.156Z,10.50
2019-05-22T06:52:02.691Z,12.20
2019-05-22T06:53:09.810Z,12.70
2019-05-22T06:54:02.681Z,11.80
2019-05-22T06:55:02.677Z,11.60
2019-05-22T06:56:02.655Z,14.80
2019-05-22T06:57:02.629Z,12.30
2019-05-22T06:58:02.626Z,11.80
2019-05-22T06:59:02.611Z,14.70
2019-05-22T07:00:14.341Z,11.20
2019-05-22T07:01:02.609Z,11.40
2019-05-22T07:02:02.619Z,12.50
2019-05-22T07:03:02.596Z,12.60
2019-05-22T07:04:02.585Z,13.40
2019-05-22T07:05:02.594Z,14.00
2019-05-22T07:06:03.608Z,12.40
2019-05-22T07:07:03.269Z,13.30
2019-05-22T07:08:02.505Z,14.90
2019-05-22T07:09:02.507Z,15.00
2019-05-22T07:10:02.608Z,12.00
2019-05-22T07:11:02.479Z,12.70
2019-05-22T07:12:02.509Z,13.20
2019-05-22T07:13:02.450Z,13.70
2019-05-22T07:14:02.453Z,12.80
2019-05-22T07:15:02.717Z,13.00
2019-05-22T07:16:02.543Z,14.30
2019-05-22T07:17:02.419Z,16.00
2019-05-22T07:18:02.409Z,11.20
2019-05-22T07:19:02.407Z,13.70
2019-05-22T07:20:02.452Z,11.90
2019-05-22T07:21:02.364Z,13.00
2019-05-22T07:22:02.363Z,12.30
2019-05-22T07:23:02.373Z,15.90
2019-05-22T07:24:02.343Z,12.70
2019-05-22T07:25:02.351Z,15.30
2019-05-22T07:26:02.312Z,13.80
2019-05-22T07:27:02.305Z,13.10
2019-05-22T07:28:02.539Z,14.50
2019-05-22T07:29:05.080Z,12.50
2019-05-22T07:30:02.978Z,13.00
2019-05-22T07:31:02.307Z,13.70
2019-05-22T07:32:02.466Z,12.10
2019-05-22T07:33:02.237Z,11.70
2019-05-22T07:34:02.242Z,12.60
2019-05-22T07:35:02.282Z,12.20
2019-05-22T07:36:13.562Z,12.20
2019-05-22T07:37:02.192Z,11.40
2019-05-22T07:38:02.213Z,12.30
2019-05-22T07:40:11.458Z,10.80
2019-05-22T07:41:12.380Z,11.50
2019-05-22T07:42:12.406Z,11.40
2019-05-22T07:43:12.359Z,10.90
2019-05-22T07:44:12.370Z,11.50
2019-05-22T07:45:12.646Z,12.70
2019-05-22T07:46:12.361Z,11.70
2019-05-22T07:47:12.317Z,14.90
2019-05-22T07:48:12.955Z,12.10
2019-05-22T07:49:12.305Z,12.40
2019-05-22T07:50:12.377Z,12.20
2019-05-22T07:51:12.281Z,11.40
2019-05-22T07:52:12.290Z,11.60
2019-05-22T07:53:12.267Z,10.10
2019-05-22T07:54:13.302Z,10.30
2019-05-22T07:55:12.254Z,11.60
2019-05-22T07:56:12.293Z,10.00
2019-05-22T07:57:12.224Z,9.10
2019-05-22T07:58:12.207Z,9.90
2019-05-22T07:59:12.390Z,11.00
2019-05-22T08:00:12.192Z,9.90
2019-05-22T08:01:12.326Z,9.30
2019-05-22T08:02:12.179Z,10.20
2019-05-22T08:03:12.141Z,9.70
2019-05-22T08:04:12.151Z,9.40
2019-05-22T08:05:13.135Z,11.50
2019-05-22T08:06:12.480Z,10.10
2019-05-22T08:07:12.770Z,8.60
2019-05-22T08:08:12.113Z,8.60
2019-05-22T08:09:12.111Z,8.80
2019-05-22T08:10:12.329Z,8.40
2019-05-22T08:11:12.080Z,9.70
2019-05-22T08:12:12.167Z,6.90
2019-05-22T08:13:12.521Z,10.90
2019-05-22T08:14:12.031Z,9.00
2019-05-22T08:15:12.025Z,8.40
2019-05-22T08:16:17.171Z,7.10
2019-05-22T08:17:11.991Z,8.90
2019-05-22T08:18:11.988Z,8.20
2019-05-22T08:19:12.582Z,7.40
2019-05-22T08:20:11.962Z,7.20
2019-05-22T08:21:12.159Z,8.20
2019-05-22T08:22:11.938Z,6.50
2019-05-22T08:23:11.932Z,6.70
2019-05-22T08:24:11.969Z,7.20
2019-05-22T08:25:11.918Z,8.40
2019-05-22T08:26:11.915Z,7.10
2019-05-22T08:27:12.673Z,6.40
2019-05-22T08:28:11.862Z,6.30
2019-05-22T08:29:11.865Z,6.00
2019-05-22T08:30:11.841Z,6.20
2019-05-22T08:31:11.834Z,6.00
2019-05-22T08:32:11.845Z,6.70
2019-05-22T08:33:11.829Z,5.80
2019-05-22T08:34:11.796Z,6.10
2019-05-22T08:35:11.789Z,6.30
2019-05-22T08:36:11.788Z,7.00
2019-05-22T08:37:11.816Z,8.10
2019-05-22T08:38:11.789Z,8.30
2019-05-22T08:39:11.766Z,8.30
2019-05-22T08:40:11.749Z,7.90
2019-05-22T08:41:11.794Z,9.10
2019-05-22T08:42:12.152Z,8.00
2019-05-22T08:43:11.739Z,9.30
2019-05-22T08:44:16.816Z,9.00
2019-05-22T08:45:11.691Z,9.40
2019-05-22T08:46:11.683Z,10.20
2019-05-22T08:47:12.168Z,11.00
2019-05-22T08:48:12.651Z,10.70
2019-05-22T08:49:12.626Z,10.50
2019-05-22T08:50:11.729Z,11.50
2019-05-22T08:51:11.698Z,13.00
2019-05-22T08:52:23.177Z,11.80
2019-05-22T08:53:11.952Z,10.80
2019-05-22T08:54:11.605Z,11.70
2019-05-22T08:55:11.697Z,11.20
2019-05-22T08:56:11.567Z,14.10
2019-05-22T08:57:11.613Z,11.40
2019-05-22T08:58:11.553Z,10.50
2019-05-22T08:59:19.391Z,10.90
2019-05-22T09:00:12.522Z,10.30
2019-05-22T09:01:11.508Z,11.40
2019-05-22T09:02:11.517Z,9.30
2019-05-22T09:03:11.720Z,10.60
2019-05-22T09:04:11.486Z,10.40
2019-05-22T09:05:11.472Z,9.90
2019-05-22T09:06:11.832Z,9.90
2019-05-22T09:07:11.464Z,9.80
2019-05-22T09:08:11.445Z,10.40
2019-05-22T09:09:11.479Z,9.60
2019-05-22T09:10:11.403Z,9.60
2019-05-22T09:11:11.387Z,11.50
2019-05-22T09:12:11.409Z,10.30
2019-05-22T09:13:11.381Z,9.30
2019-05-22T09:14:11.374Z,8.80
2019-05-22T09:15:11.402Z,9.80
2019-05-22T09:16:11.355Z,9.20
2019-05-22T09:17:11.366Z,11.20
2019-05-22T09:18:11.331Z,9.40
2019-05-22T09:19:11.426Z,10.30
2019-05-22T09:20:11.325Z,13.10
2019-05-22T09:21:11.283Z,9.00
2019-05-22T09:22:11.366Z,9.30
2019-05-22T09:23:11.263Z,8.20
2019-05-22T09:24:11.490Z,9.10
2019-05-22T09:25:12.162Z,9.70
2019-05-22T09:26:11.246Z,9.40
2019-05-22T09:27:11.228Z,7.90
2019-05-22T09:28:11.334Z,7.90
2019-05-22T09:29:11.254Z,7.60
2019-05-22T09:30:11.248Z,9.10
2019-05-22T09:31:11.344Z,8.70
2019-05-22T09:32:11.269Z,7.90
2019-05-22T09:33:11.234Z,8.60
2019-05-22T09:34:11.322Z,6.60
2019-05-22T09:35:11.208Z,7.20
2019-05-22T09:36:11.119Z,7.00
2019-05-22T09:37:11.096Z,7.70
2019-05-22T09:38:11.214Z,6.50
2019-05-22T09:39:11.117Z,6.10
2019-05-22T23:02:44.777Z,14.30
2019-05-22T23:03:45.736Z,13.50
2019-05-22T23:04:45.722Z,13.10
2019-05-22T23:05:45.708Z,12.60
2019-05-22T23:06:45.722Z,14.90
2019-05-22T23:07:45.687Z,12.90
2019-05-22T23:08:45.719Z,14.10
2019-05-22T23:09:45.684Z,15.10
2019-05-22T23:10:45.692Z,13.80
2019-05-22T23:11:45.680Z,14.30
2019-05-22T23:12:45.623Z,13.70
2019-05-22T23:13:45.624Z,13.20
2019-05-22T23:14:45.599Z,13.90
2019-05-22T23:15:45.604Z,15.30
2019-05-22T23:16:45.611Z,14.40
2019-05-22T23:17:45.590Z,15.10
2019-05-22T23:18:45.599Z,14.10
2019-05-22T23:19:45.549Z,14.20
2019-05-22T23:20:45.555Z,14.30
2019-05-22T23:21:45.558Z,15.30
2019-05-22T23:22:45.517Z,14.00
2019-05-22T23:23:45.530Z,14.80
2019-05-22T23:24:45.532Z,14.90
2019-05-22T23:25:45.513Z,14.80
2019-05-22T23:26:45.494Z,15.10
2019-05-22T23:27:45.471Z,14.30
2019-05-22T23:28:45.474Z,14.40
2019-05-22T23:29:45.467Z,14.80
2019-05-22T23:30:45.449Z,13.90
2019-05-22T23:31:45.466Z,14.60
2019-05-22T23:32:45.466Z,14.10
2019-05-22T23:33:45.427Z,14.20
2019-05-22T23:34:45.392Z,13.80
2019-05-22T23:35:45.400Z,14.50
2019-05-22T23:36:45.398Z,14.60
2019-05-22T23:37:45.371Z,14.50
2019-05-22T23:38:45.344Z,14.70
2019-05-22T23:39:45.362Z,14.70
2019-05-22T23:40:45.327Z,14.30
2019-05-22T23:41:45.336Z,14.60
2019-05-22T23:42:45.302Z,14.70
2019-05-22T23:43:45.313Z,14.90
2019-05-22T23:44:45.367Z,14.30
2019-05-22T23:45:45.318Z,14.50
2019-05-22T23:46:45.276Z,15.90
2019-05-22T23:47:45.289Z,14.90
2019-05-22T23:48:45.244Z,15.00
2019-05-22T23:49:45.236Z,14.00
2019-05-22T23:50:45.217Z,15.40
2019-05-22T23:51:45.201Z,14.30
2019-05-22T23:52:45.212Z,14.30
2019-05-22T23:53:45.180Z,14.80
2019-05-22T23:54:45.178Z,15.00
2019-05-22T23:55:45.186Z,15.10
2019-05-22T23:56:45.157Z,14.80
2019-05-22T23:57:45.197Z,14.10
2019-05-22T23:58:52.903Z,15.00
2019-05-22T23:59:45.107Z,14.40
